createdAt,value
2022-09-05T00:00:40.315Z,3.5
2022-09-05T00:04:40.442Z,3.83
2022-09-05T00:08:40.575Z,3.62
2022-09-05T00:12:40.820Z,4
2022-09-05T00:16:40.593Z,3.53
2022-09-05T00:24:27.749Z,3.5
2022-09-05T00:25:02.314Z,3.67
2022-09-05T00:28:40.471Z,3.67
2022-09-05T00:32:40.739Z,3.8
2022-09-05T00:36:40.671Z,3.6
2022-09-05T00:40:40.711Z,3.9
2022-09-05T00:44:40.521Z,3.95
2022-09-05T00:48:40.516Z,3.78
2022-09-05T00:52:40.441Z,3.78
2022-09-05T00:56:40.703Z,4.03
2022-09-05T01:00:40.495Z,3.75
2022-09-05T01:04:40.358Z,3.4
2022-09-05T01:08:40.410Z,3.92
2022-09-05T01:12:40.515Z,4.22
2022-09-05T01:16:40.579Z,3.95
2022-09-05T01:20:41.347Z,3.67
2022-09-05T01:24:40.545Z,3.92
2022-09-05T01:29:15.904Z,3.65
2022-09-05T01:32:40.300Z,3.65
2022-09-05T01:36:40.852Z,3.8
2022-09-05T01:40:41.047Z,3.4
2022-09-05T01:44:40.945Z,4.95
2022-09-05T01:48:47.552Z,3.87
2022-09-05T01:52:57.302Z,4.03
2022-09-05T01:56:41.227Z,3.58
2022-09-05T02:00:41.170Z,3.53
2022-09-05T02:04:40.561Z,4.28
2022-09-05T02:08:41.783Z,4.45
2022-09-05T02:12:40.517Z,3.55
2022-09-05T02:16:40.611Z,3.85
2022-09-05T02:20:40.794Z,3.7
2022-09-05T02:24:40.529Z,4.5
2022-09-05T02:28:40.364Z,4.07
2022-09-05T02:32:43.184Z,4.1
2022-09-05T02:36:39.663Z,4.43
2022-09-05T02:45:10.693Z,4.3
2022-09-05T02:45:15.040Z,4.82
2022-09-05T02:48:40.833Z,4.18
2022-09-05T02:57:40.796Z,4.22
2022-09-05T02:57:46.254Z,4.3
2022-09-05T03:00:40.550Z,4.15
2022-09-05T03:04:40.744Z,4.18
2022-09-05T03:08:39.429Z,4.18
2022-09-05T03:12:40.550Z,4.62
2022-09-05T03:16:47.283Z,4.93
2022-09-05T03:20:40.506Z,4.87
2022-09-05T03:24:40.337Z,4.68
2022-09-05T03:28:40.469Z,4.43
2022-09-05T03:32:42.035Z,4.93
2022-09-05T03:36:41.057Z,4.6
2022-09-05T03:40:41.270Z,4.53
2022-09-05T03:44:40.379Z,4.18
2022-09-05T03:48:40.481Z,4.62
2022-09-05T03:57:08.813Z,5.43
2022-09-05T03:57:23.406Z,4.78
2022-09-05T04:00:40.563Z,4.47
2022-09-05T04:08:11.395Z,4.6
2022-09-05T04:08:43.105Z,5.35
2022-09-05T04:12:40.928Z,4.87
2022-09-05T04:16:39.416Z,5.37
2022-09-05T04:20:40.821Z,5.2
2022-09-05T04:24:39.700Z,5.82
2022-09-05T04:28:41.374Z,5.62
2022-09-05T04:32:41.216Z,5.22
2022-09-05T04:36:41.043Z,5.15
2022-09-05T04:40:40.804Z,5.47
2022-09-05T04:44:40.903Z,6.05
2022-09-05T04:48:40.422Z,4.9
2022-09-05T04:52:40.737Z,5.87
2022-09-05T04:56:42.852Z,5.35
2022-09-05T05:06:04.228Z,4.93
2022-09-05T05:06:18.349Z,5.22
2022-09-05T05:08:40.317Z,5.03
2022-09-05T05:18:00.667Z,4.8
2022-09-05T05:18:15.635Z,5.57
2022-09-05T05:20:43.909Z,4.8
2022-09-05T05:24:40.655Z,5.25
2022-09-05T05:28:40.453Z,5.62
2022-09-05T05:32:46.482Z,4.8
2022-09-05T05:36:40.994Z,5.68
2022-09-05T05:40:41.357Z,5.93
2022-09-05T05:44:39.481Z,4.85
2022-09-05T05:48:40.119Z,5.1
2022-09-05T05:52:41.136Z,5.05
2022-09-05T05:56:40.829Z,5.28
2022-09-05T06:00:40.560Z,6.12
2022-09-05T06:04:44.936Z,4.87
2022-09-05T06:11:06.030Z,4.87
2022-09-05T06:15:00.161Z,5.62
2022-09-05T06:16:40.373Z,4.87
2022-09-05T06:22:05.370Z,5.05
2022-09-05T06:24:39.389Z,5.55
2022-09-05T06:28:40.588Z,5
2022-09-05T06:32:43.131Z,5.28
2022-09-05T06:36:40.885Z,5.37
2022-09-05T06:40:40.844Z,5.25
2022-09-05T06:44:39.800Z,5.25
2022-09-05T06:48:45.950Z,4.78
2022-09-05T06:52:40.542Z,5.37
2022-09-05T06:56:40.653Z,5.35
2022-09-05T07:00:40.737Z,5.22
2022-09-05T07:05:24.094Z,5.6
2022-09-05T07:08:41.098Z,5.75
2022-09-05T07:12:40.388Z,5.65
2022-09-05T07:16:41.049Z,6.05
2022-09-05T07:21:16.317Z,6.3
2022-09-05T07:24:53.807Z,5.7
2022-09-05T07:28:40.666Z,6.25
2022-09-05T07:32:40.489Z,5.72
2022-09-05T07:36:39.693Z,6.7
2022-09-05T07:40:40.562Z,6.47
2022-09-05T07:44:40.482Z,7.07
2022-09-05T07:48:40.198Z,6.22
2022-09-05T07:56:48.139Z,5.72
2022-09-05T07:56:59.014Z,6.85
2022-09-05T08:00:40.571Z,6.53
2022-09-05T08:04:40.848Z,6.5
2022-09-05T08:08:40.424Z,7.45
2022-09-05T08:13:22.889Z,7.65
2022-09-05T08:16:40.593Z,7.32
2022-09-05T08:20:40.593Z,6.4
2022-09-05T08:24:41.138Z,7.25
2022-09-05T08:28:40.076Z,7.7
2022-09-05T08:32:40.683Z,7.22
2022-09-05T08:36:40.977Z,8.5
2022-09-05T08:40:40.582Z,6.93
2022-09-05T08:46:40.347Z,7.22
2022-09-05T08:48:40.540Z,7.65
2022-09-05T08:52:40.524Z,8.2
2022-09-05T08:56:40.420Z,7.15
2022-09-05T09:00:40.685Z,6.37
2022-09-05T09:05:01.899Z,6.57
2022-09-05T09:08:41.176Z,6.35
2022-09-05T09:12:40.772Z,6
2022-09-05T09:16:40.302Z,6.05
2022-09-05T09:20:41.972Z,5.5
2022-09-05T09:24:39.802Z,5.97
2022-09-05T09:28:47.949Z,5.85
2022-09-05T09:32:40.506Z,6.05
2022-09-05T09:36:41.158Z,5.9
2022-09-05T09:40:41.281Z,6.5
2022-09-05T09:44:40.785Z,5.4
2022-09-05T09:48:40.466Z,5.43
2022-09-05T09:52:40.171Z,6.65
2022-09-05T09:56:41.121Z,5.7
2022-09-05T10:00:40.731Z,6.15
2022-09-05T10:10:33.151Z,6.15
2022-09-05T10:11:22.769Z,6.28
2022-09-05T10:12:40.862Z,5.22
2022-09-05T10:16:40.790Z,5.2
2022-09-05T10:20:41.031Z,5.47
2022-09-05T10:24:39.775Z,5.43
2022-09-05T10:28:39.999Z,5.55
2022-09-05T10:35:09.842Z,5
2022-09-05T10:36:40.496Z,5.55
2022-09-05T10:41:08.106Z,5.55
2022-09-05T10:44:40.479Z,6.1
2022-09-05T10:48:40.606Z,5.28
2022-09-05T10:52:40.488Z,5.8
2022-09-05T10:56:40.589Z,5.12
2022-09-05T11:02:26.568Z,5.28
2022-09-05T11:04:49.518Z,5
2022-09-05T11:08:40.532Z,5.15
2022-09-05T11:12:40.445Z,4.78
2022-09-05T11:16:40.902Z,5.1
2022-09-05T11:20:40.701Z,4.8
2022-09-05T11:24:40.509Z,6
2022-09-05T11:28:51.009Z,5.8
2022-09-05T11:37:34.208Z,5.05
2022-09-05T11:39:51.545Z,5.3
2022-09-05T11:41:01.085Z,5.97
2022-09-05T11:44:40.905Z,5.57
2022-09-05T11:48:41.910Z,5.62
2022-09-05T11:52:40.432Z,6.45
2022-09-05T11:56:45.806Z,5.7
2022-09-05T12:00:40.703Z,5.75
2022-09-05T12:04:41.038Z,6.12
2022-09-05T12:08:40.569Z,6.4
2022-09-05T12:12:42.004Z,6.25
2022-09-05T12:16:40.630Z,5.87
2022-09-05T12:20:43.086Z,6.55
2022-09-05T12:25:25.250Z,6.15
2022-09-05T12:29:27.700Z,5.85
2022-09-05T12:36:01.875Z,6.1
2022-09-05T12:40:48.170Z,5.62
2022-09-05T12:41:35.915Z,5.37
2022-09-05T12:44:45.020Z,5.32
2022-09-05T12:48:40.639Z,4.95
2022-09-05T12:52:40.568Z,4.62
2022-09-05T12:59:30.078Z,4.32
2022-09-05T13:03:04.849Z,5.45
2022-09-05T13:04:51.258Z,5.18
2022-09-05T13:08:40.482Z,4.3
2022-09-05T13:15:02.310Z,4.85
2022-09-05T13:16:40.988Z,4.9
2022-09-05T13:20:40.551Z,5.75
2022-09-05T13:24:40.524Z,4.82
2022-09-05T13:28:40.689Z,4.7
2022-09-05T13:37:59.938Z,4.72
2022-09-05T13:38:19.332Z,4.78
2022-09-05T13:40:41.476Z,4.47
2022-09-05T13:44:40.547Z,4.5
2022-09-05T13:52:40.609Z,4.85
2022-09-05T13:56:41.029Z,4.45
2022-09-05T14:00:40.725Z,4.82
2022-09-05T14:08:40.714Z,4.68
2022-09-05T14:12:40.670Z,4.62
2022-09-05T14:16:53.374Z,4.37
2022-09-05T14:20:42.906Z,4.32
2022-09-05T14:24:40.525Z,4.78
2022-09-05T14:28:40.280Z,4.85
2022-09-05T14:37:41.990Z,4.68
2022-09-05T14:37:49.871Z,3.9
2022-09-05T14:40:43.218Z,4.75
2022-09-05T14:44:41.782Z,4.4
2022-09-05T14:48:40.221Z,4.53
2022-09-05T14:52:43.770Z,3.7
2022-09-05T14:57:50.476Z,4.65
2022-09-05T15:02:41.675Z,3.9
2022-09-05T15:04:42.509Z,4.22
2022-09-05T15:11:15.245Z,4.8
2022-09-05T15:12:50.302Z,3.7
2022-09-05T15:16:41.198Z,4.1
2022-09-05T15:20:40.435Z,3.95
2022-09-05T15:24:40.873Z,3.87
2022-09-05T15:28:40.475Z,3.42
2022-09-05T15:32:40.485Z,3.5
2022-09-05T15:36:40.431Z,3.75
2022-09-05T15:40:41.067Z,3.45
2022-09-05T15:45:06.439Z,3.9
2022-09-05T15:48:40.518Z,3.33
2022-09-05T15:52:40.609Z,3.45
2022-09-05T15:56:40.984Z,4.1
2022-09-05T16:00:39.861Z,3.35
2022-09-05T16:10:26.680Z,3.03
2022-09-05T16:10:39.492Z,3.47
2022-09-05T16:23:15.748Z,3.45
2022-09-05T16:23:27.595Z,3.25
2022-09-05T16:24:59.828Z,3.08
2022-09-05T16:28:40.499Z,2.72
2022-09-05T16:32:41.390Z,3.4
2022-09-05T16:36:40.529Z,2.78
2022-09-05T16:40:40.471Z,2.8
2022-09-05T16:44:40.442Z,2.7
2022-09-05T16:48:40.696Z,3.12
2022-09-05T16:52:40.509Z,2.87
2022-09-05T16:56:40.982Z,2.72
2022-09-05T17:00:39.917Z,3.05
2022-09-05T17:04:40.461Z,3.03
2022-09-05T17:08:40.402Z,3.3
2022-09-05T17:12:40.296Z,3.3
2022-09-05T17:16:40.535Z,3.08
2022-09-05T17:20:40.568Z,3.15
2022-09-05T17:29:18.357Z,3.47
2022-09-05T17:29:42.136Z,3.05
2022-09-05T17:32:40.876Z,3.6
2022-09-05T17:36:40.850Z,3.05
2022-09-05T17:40:40.515Z,3.03
2022-09-05T17:44:40.744Z,2.92
2022-09-05T17:48:40.869Z,3.28
2022-09-05T17:52:40.519Z,3.17
2022-09-05T17:56:41.008Z,3.6
2022-09-05T18:00:40.545Z,3.42
2022-09-05T18:04:40.449Z,2.87
2022-09-05T18:08:40.740Z,3.55
2022-09-05T18:16:45.439Z,3.28
2022-09-05T18:20:40.517Z,3
2022-09-05T18:24:40.576Z,3.28
2022-09-05T18:28:40.399Z,3.53
2022-09-05T18:32:40.351Z,3.58
2022-09-05T18:36:40.495Z,4.03
2022-09-05T18:40:40.496Z,3.9
2022-09-05T18:44:40.291Z,3.8
2022-09-05T18:48:40.307Z,4.22
2022-09-05T18:52:40.224Z,3.6
2022-09-05T18:57:09.686Z,4.03
2022-09-05T19:00:44.459Z,3.97
2022-09-05T19:04:44.921Z,3.4
2022-09-05T19:08:40.411Z,3.8
2022-09-05T19:12:46.652Z,4.22
2022-09-05T19:16:43.993Z,4.32
2022-09-05T19:20:41.490Z,3.3
2022-09-05T19:24:45.058Z,4.1
2022-09-05T19:34:50.467Z,3.7
2022-09-05T19:37:05.618Z,3.95
2022-09-05T19:37:11.974Z,4.3
2022-09-05T19:45:09.971Z,4.18
2022-09-05T19:47:37.193Z,3.72
2022-09-05T19:48:41.219Z,4.22
2022-09-05T19:52:41.052Z,4.28
2022-09-05T19:56:40.765Z,4.8
2022-09-05T20:00:40.868Z,3.75
2022-09-05T20:04:40.437Z,4.2
2022-09-05T20:08:40.485Z,4.07
2022-09-05T20:12:40.668Z,3.95
2022-09-05T20:16:40.545Z,3.87
2022-09-05T20:20:40.578Z,4
2022-09-05T20:24:40.884Z,4.75
2022-09-05T20:28:40.517Z,3.62
2022-09-05T20:32:40.635Z,3.8
2022-09-05T20:40:03.966Z,3.85
2022-09-05T20:43:23.463Z,3.25
2022-09-05T20:44:41.381Z,3.65
2022-09-05T20:54:04.803Z,3.97
2022-09-05T20:54:18.048Z,4.32
2022-09-05T20:56:40.608Z,4.12
2022-09-05T21:00:40.440Z,3.75
2022-09-05T21:04:40.774Z,3.67
2022-09-05T21:08:40.459Z,3.25
2022-09-05T21:12:40.467Z,3.7
2022-09-05T21:16:40.714Z,3.9
2022-09-05T21:20:40.480Z,3.05
2022-09-05T21:24:40.481Z,3.28
2022-09-05T21:28:44.340Z,3.62
2022-09-05T21:32:41.895Z,3.95
2022-09-05T21:36:40.334Z,3.22
2022-09-05T21:40:40.670Z,3.22
2022-09-05T21:47:43.877Z,3.72
2022-09-05T21:48:40.329Z,3.67
2022-09-05T21:52:47.513Z,3.12
2022-09-05T21:59:19.474Z,3.28
2022-09-05T22:00:40.814Z,3.25
2022-09-05T22:04:41.472Z,2.85
2022-09-05T22:08:40.813Z,3.28
2022-09-05T22:12:40.700Z,3.3
2022-09-05T22:16:45.270Z,3.35
2022-09-05T22:20:40.442Z,3.3
2022-09-05T22:24:40.419Z,3.12
2022-09-05T22:28:40.408Z,3.62
2022-09-05T22:32:40.306Z,3.15
2022-09-05T22:36:40.728Z,3.42
2022-09-05T22:40:40.536Z,3.4
2022-09-05T22:44:40.512Z,3
2022-09-05T22:48:40.502Z,2.9
2022-09-05T22:52:40.432Z,3.42
2022-09-05T22:56:41.015Z,2.6
2022-09-05T23:00:40.844Z,2.9
2022-09-05T23:04:40.411Z,2.85
2022-09-05T23:08:40.495Z,2.6
2022-09-05T23:12:40.435Z,2.58
2022-09-05T23:16:40.665Z,2.47
2022-09-05T23:20:40.555Z,2.95
2022-09-05T23:24:41.302Z,2.5
2022-09-05T23:28:43.069Z,2.1
2022-09-05T23:32:40.566Z,2.28
2022-09-05T23:36:40.429Z,2.47
2022-09-05T23:40:40.550Z,2.83
2022-09-05T23:44:41.032Z,2.58
2022-09-05T23:48:40.827Z,2.95
2022-09-05T23:52:40.463Z,2.47
2022-09-05T23:56:41.119Z,2.2
